Aérodrome :
LOGIN :

S'inscrire | Disclaimer

   EN    FR    IT 

 










Légende :    VFR   VFR Marginal   IFR   IFR Intensif   IFR Très Intensif
Visi : 
Plafond : 
>= 8 km
>= 3000ft
5 à 8 km
1000 à 3000 ft
1500m à 5 km
500 à 1000 ft
800 à 1500m
200 à 500 ft
< 800m
< 200 ft
Symboles :   Orages  Brouillard  Fortes neiges  Fortes précipitations  Vent > 20 kt
SIGMETs :   Divers  Orages  Givrage  Turbulence  Onde Orograph.  Cendres Volcan.







- Altitude de l'aérodrome : 616 ft
- Code IATA : PUF
- Voir les cartes d'approche


LFBP - Pau

DERNIER METAR :
  • 222000Z AUTO 29004KT CAVOK 19/14 Q1017 TEMPO 4000 -TSRA BKN050CB

METARs EXPIRÉS :
  • 221930Z AUTO 24007KT CAVOK 19/14 Q1017 TEMPO 4000 -TSRA BKN050CB
  • 221900Z AUTO 27004KT CAVOK 20/14 Q1016 TEMPO 4000 -TSRA BKN050CB
  • 221830Z AUTO 25006KT CAVOK 20/14 Q1015 TEMPO 4000 -TSRA BKN050CB
  • 221800Z AUTO 26004KT CAVOK 21/14 Q1015 TEMPO 4000 -TSRA BKN050CB
  • 221730Z AUTO 30004KT 270V330 CAVOK 22/14 Q1015 TEMPO 4000 -TSRA BKN050CB

TAF AMD TAF LFBP
Valide du 22 à 19h jusqu'au 23 à 18h UTC


221955Z 2219/2318 27008KT CAVOK
PROB40
TEMPO 2220/2301 -SHRA FEW060CB BKN080TCU
TEMPO 2301/2312 BKN010
PROB30 2301/2307 3000 BR
Pas de NOTAMs connus pour ce terrain.
1 SIGMET publié pour la FIR Bordeaux (LFBB) :
 
Orages noyés dans la masse
LFBB SIGMET 1 VALID 221900/222100 LFPW
LFBB BORDEAUX FIR/UIR EMBD TS FCST WI N4245 E00000 - N4300 W00145 - N4430 W00145 - N4430 W00100 - N4345 E00100 - N4245 E00000 TOP FL350 STNR INTSF=



MET'MAP, la Météo Aéronautique d'un coup d'oeil ! - Copyright ORBIFLY Décembre 2007 - Disclaimer

ORBIFLY MET'MAP TEAM :

Programmation & Développement : Alexandra Zaïnal
Conception & Développement : Baudouin d'Aumeries
Co-Programmation & Développement : Marc-Olivier Méhu
Soutien technique & logistique : Manuel Goepfert

Contact : metmap@orbifly.com




SOURCES & CREDITS :

   NOAA